createdAt,value
2023-03-26T00:01:36.545Z,7.75
2023-03-26T00:04:05.786Z,5.65
2023-03-26T00:06:39.566Z,8.40
2023-03-26T00:09:10.339Z,8.05
2023-03-26T00:11:37.305Z,6.80
2023-03-26T00:14:05.628Z,6.20
2023-03-26T00:16:32.777Z,10.20
2023-03-26T00:19:01.405Z,8.20
2023-03-26T00:21:30.251Z,10.45
2023-03-26T00:23:59.962Z,13.07
2023-03-26T00:28:54.617Z,9.45
2023-03-26T00:31:22.239Z,9.68
2023-03-26T00:33:54.385Z,8.95
2023-03-26T00:36:23.137Z,12.65
2023-03-26T00:38:50.024Z,9.68
2023-03-26T00:41:23.315Z,10.77
2023-03-26T00:43:56.772Z,7.53
2023-03-26T00:46:25.623Z,8.13
2023-03-26T00:48:52.894Z,5.27
2023-03-26T00:51:21.200Z,9.95
2023-03-26T00:53:49.821Z,5.40
2023-03-26T00:56:17.738Z,10.77
2023-03-26T00:58:46.495Z,5.80
2023-03-26T01:01:17.768Z,8.35
2023-03-26T01:04:00.865Z,7.93
2023-03-26T01:06:36.074Z,7.70
2023-03-26T01:09:12.852Z,8.77
2023-03-26T01:11:39.722Z,6.55
2023-03-26T01:14:11.238Z,13.57
2023-03-26T01:16:58.637Z,6.90
2023-03-26T01:19:38.131Z,12.70
2023-03-26T01:22:11.821Z,10.20
2023-03-26T01:24:39.911Z,13.95
2023-03-26T01:27:33.775Z,14.05
2023-03-26T01:30:11.298Z,9.80
2023-03-26T01:32:44.421Z,7.13
2023-03-26T01:35:12.549Z,9.48
2023-03-26T01:37:58.782Z,7.18
2023-03-26T01:40:42.851Z,6.53
2023-03-26T01:43:54.392Z,9.63
2023-03-26T01:46:25.706Z,6.45
2023-03-26T01:48:53.385Z,15.40
2023-03-26T01:51:35.863Z,10.23
2023-03-26T01:54:06.041Z,5.70
2023-03-26T01:56:51.335Z,5.10
2023-03-26T01:59:55.683Z,8.63
2023-03-26T02:02:28.079Z,10.65
2023-03-26T02:05:09.645Z,8.63
2023-03-26T02:08:22.693Z,13.30
2023-03-26T02:10:59.088Z,7.10
2023-03-26T02:13:26.943Z,8.55
2023-03-26T02:16:03.911Z,5.13
2023-03-26T02:18:37.464Z,9.60
2023-03-26T02:21:13.915Z,16.48
2023-03-26T02:23:47.013Z,7.43
2023-03-26T02:26:17.399Z,6.53
2023-03-26T02:29:14.609Z,16.33
2023-03-26T02:31:45.657Z,8.60
2023-03-26T02:34:15.719Z,5.22
2023-03-26T02:36:50.368Z,10.88
2023-03-26T02:39:19.034Z,8.02
2023-03-26T02:41:55.078Z,7.82
2023-03-26T02:44:27.782Z,13.93
2023-03-26T02:47:20.889Z,13.60
2023-03-26T02:49:54.392Z,10.40
2023-03-26T02:52:28.023Z,12.77
2023-03-26T02:54:59.939Z,6.78
2023-03-26T02:57:28.841Z,11.15
2023-03-26T03:00:29.104Z,10.68
2023-03-26T03:03:24.983Z,13.73
2023-03-26T03:06:23.127Z,10.80
2023-03-26T03:08:54.129Z,7.38
2023-03-26T03:11:45.236Z,10.65
2023-03-26T03:14:13.718Z,13.35
2023-03-26T03:16:41.568Z,8.85
2023-03-26T03:19:13.537Z,12.65
2023-03-26T03:21:46.042Z,9.38
2023-03-26T03:24:18.938Z,7.30
2023-03-26T03:26:52.687Z,10.98
2023-03-26T03:29:30.867Z,8.50
2023-03-26T03:32:08.054Z,9.23
2023-03-26T03:34:43.470Z,3.88
2023-03-26T03:37:11.421Z,7.07
2023-03-26T03:40:00.291Z,10.48
2023-03-26T03:42:31.026Z,9.18
2023-03-26T03:45:05.377Z,9.63
2023-03-26T03:47:50.479Z,9.48
2023-03-26T03:50:27.821Z,10.38
2023-03-26T03:53:16.356Z,8.88
2023-03-26T03:55:53.690Z,6.13
2023-03-26T03:58:28.443Z,15.25
2023-03-26T04:01:03.194Z,8.65
2023-03-26T04:03:51.397Z,3.83
2023-03-26T04:06:22.082Z,6.63
2023-03-26T04:08:52.986Z,12.77
2023-03-26T04:11:20.778Z,10.57
2023-03-26T04:14:05.749Z,9.02
2023-03-26T04:16:53.262Z,8.30
2023-03-26T04:19:21.370Z,14.75
2023-03-26T04:21:51.288Z,10.80
2023-03-26T04:24:22.590Z,8.77
2023-03-26T04:27:19.463Z,7.80
2023-03-26T04:29:50.043Z,5.95
2023-03-26T04:32:30.468Z,6.18
2023-03-26T04:35:04.143Z,21.17
2023-03-26T04:37:41.517Z,5.03
2023-03-26T04:40:24.522Z,7.10
2023-03-26T04:43:02.574Z,11.35
2023-03-26T04:45:55.257Z,8.82
2023-03-26T04:48:25.970Z,9.18
2023-03-26T04:50:53.700Z,6.82
2023-03-26T04:53:24.901Z,7.68
2023-03-26T04:56:33.786Z,12.00
2023-03-26T04:59:30.398Z,7.10
2023-03-26T05:02:00.591Z,10.93
2023-03-26T05:04:34.351Z,7.05
2023-03-26T05:07:02.645Z,8.40
2023-03-26T05:09:42.717Z,10.02
2023-03-26T05:12:17.797Z,7.85
2023-03-26T05:14:56.930Z,6.63
2023-03-26T05:17:51.604Z,13.45
2023-03-26T05:20:33.765Z,16.95
2023-03-26T05:23:03.615Z,7.00
2023-03-26T05:25:35.309Z,8.23
2023-03-26T05:28:06.608Z,11.82
2023-03-26T05:30:49.693Z,5.07
2023-03-26T05:33:18.167Z,11.13
2023-03-26T05:36:17.540Z,11.05
2023-03-26T05:38:50.318Z,8.73
2023-03-26T05:41:37.828Z,5.82
2023-03-26T05:44:05.393Z,5.78
2023-03-26T05:46:32.422Z,4.07
2023-03-26T05:49:03.345Z,16.45
2023-03-26T05:51:33.765Z,7.57
2023-03-26T05:54:21.164Z,20.30
2023-03-26T05:57:08.042Z,10.30
2023-03-26T05:59:56.217Z,12.20
2023-03-26T06:02:43.101Z,10.75
2023-03-26T06:05:34.443Z,7.72
2023-03-26T06:08:22.039Z,5.13
2023-03-26T06:10:58.394Z,5.72
2023-03-26T06:13:26.647Z,6.68
2023-03-26T06:15:54.007Z,9.35
2023-03-26T06:18:27.951Z,12.38
2023-03-26T06:21:28.037Z,10.15
2023-03-26T06:24:04.337Z,4.88
2023-03-26T06:26:43.646Z,9.10
2023-03-26T06:29:46.403Z,9.68
2023-03-26T06:32:40.154Z,6.45
2023-03-26T06:35:13.811Z,10.75
2023-03-26T06:37:40.754Z,6.60
2023-03-26T06:40:08.620Z,6.07
2023-03-26T06:43:06.873Z,6.95
2023-03-26T06:45:53.557Z,8.50
2023-03-26T06:48:40.319Z,11.32
2023-03-26T06:51:20.481Z,11.25
2023-03-26T06:54:06.624Z,5.55
2023-03-26T06:56:54.715Z,4.95
2023-03-26T06:59:40.683Z,10.73
2023-03-26T07:02:26.618Z,10.95
2023-03-26T07:05:13.091Z,6.97
2023-03-26T07:08:16.851Z,10.65
2023-03-26T07:11:02.782Z,6.63
2023-03-26T07:13:48.179Z,5.43
2023-03-26T07:16:41.037Z,8.55
2023-03-26T07:19:16.789Z,4.55
2023-03-26T07:21:44.969Z,14.15
2023-03-26T07:24:26.509Z,12.68
2023-03-26T07:27:44.039Z,10.75
2023-03-26T07:30:20.125Z,8.52
2023-03-26T07:33:31.936Z,14.43
2023-03-26T07:36:41.757Z,10.63
2023-03-26T07:39:56.094Z,10.35
2023-03-26T07:43:08.042Z,12.32
2023-03-26T07:46:04.563Z,7.60
2023-03-26T07:48:49.878Z,8.57
2023-03-26T07:51:40.175Z,12.35
2023-03-26T07:54:31.067Z,8.48
2023-03-26T07:57:27.008Z,6.53
2023-03-26T08:00:40.519Z,9.13
2023-03-26T08:03:25.079Z,10.43
2023-03-26T08:06:18.087Z,2.90
2023-03-26T08:09:11.968Z,10.60
2023-03-26T08:12:30.479Z,8.48
2023-03-26T08:15:25.951Z,11.32
2023-03-26T08:18:11.955Z,14.98
2023-03-26T08:20:54.396Z,8.50
2023-03-26T08:23:34.215Z,7.50
2023-03-26T08:29:04.848Z,12.60
2023-03-26T08:31:35.481Z,12.50
2023-03-26T08:34:02.990Z,11.27
2023-03-26T08:36:30.283Z,7.75
2023-03-26T08:38:59.725Z,12.27
2023-03-26T08:44:17.054Z,9.10
2023-03-26T08:47:11.812Z,10.60
2023-03-26T08:49:44.920Z,7.45
2023-03-26T08:52:49.896Z,8.00
2023-03-26T08:55:26.131Z,14.27
2023-03-26T08:58:43.590Z,17.35
2023-03-26T09:01:16.421Z,12.07
2023-03-26T09:04:17.082Z,12.45
2023-03-26T09:07:06.828Z,12.57
2023-03-26T09:10:09.112Z,10.88
2023-03-26T09:12:50.982Z,8.43
2023-03-26T09:15:47.026Z,7.65
2023-03-26T09:18:19.941Z,9.98
2023-03-26T09:21:26.280Z,10.63
2023-03-26T09:24:30.854Z,7.60
2023-03-26T09:27:16.698Z,6.10
2023-03-26T09:30:47.307Z,8.18
2023-03-26T09:33:43.610Z,6.47
2023-03-26T09:36:32.557Z,5.80
2023-03-26T09:39:08.818Z,7.78
2023-03-26T09:41:43.454Z,6.35
2023-03-26T09:44:28.545Z,4.57
2023-03-26T09:47:20.099Z,5.45
2023-03-26T09:50:15.229Z,4.28
2023-03-26T09:53:05.125Z,4.72
2023-03-26T09:55:46.375Z,8.00
2023-03-26T09:58:44.595Z,4.78
2023-03-26T10:01:22.819Z,5.20
2023-03-26T10:04:15.696Z,7.05
2023-03-26T10:06:58.455Z,2.67
2023-03-26T10:09:46.295Z,2.75
2023-03-26T10:12:34.489Z,2.95
2023-03-26T10:15:23.393Z,4.43
2023-03-26T10:18:30.150Z,2.13
2023-03-26T10:21:36.340Z,5.95
2023-03-26T10:24:28.050Z,4.97
2023-03-26T10:27:10.798Z,3.67
2023-03-26T10:29:59.787Z,6.15
2023-03-26T10:32:38.105Z,3.50
2023-03-26T10:35:43.483Z,4.72
2023-03-26T10:38:13.291Z,8.40
2023-03-26T10:41:06.746Z,6.47
2023-03-26T10:43:42.129Z,12.55
2023-03-26T10:46:46.618Z,5.78
2023-03-26T10:49:39.837Z,3.97
2023-03-26T10:52:16.319Z,8.82
2023-03-26T10:55:04.233Z,7.47
2023-03-26T10:57:56.371Z,8.93
2023-03-26T11:00:26.222Z,8.43
2023-03-26T11:03:09.964Z,10.35
2023-03-26T11:06:05.131Z,5.63
2023-03-26T11:08:46.988Z,7.97
2023-03-26T11:11:30.653Z,5.85
2023-03-26T11:14:34.743Z,2.05
2023-03-26T11:17:14.502Z,4.78
2023-03-26T11:20:10.909Z,3.75
2023-03-26T11:25:41.544Z,6.03
2023-03-26T11:28:30.456Z,5.18
2023-03-26T11:31:21.931Z,5.28
2023-03-26T11:34:00.558Z,4.18
2023-03-26T11:36:36.550Z,3.47
2023-03-26T11:39:10.810Z,1.75
2023-03-26T11:41:37.649Z,1.58
2023-03-26T11:44:29.994Z,0.57
2023-03-26T11:47:05.510Z,0.47
2023-03-26T11:49:32.865Z,2.40
2023-03-26T11:52:01.099Z,1.13
2023-03-26T11:54:27.982Z,4.03
2023-03-26T11:57:12.977Z,3.75
2023-03-26T11:59:59.567Z,1.08
2023-03-26T12:02:38.064Z,2.30
2023-03-26T12:05:15.332Z,2.20
2023-03-26T12:07:54.000Z,21.25
2023-03-26T12:10:43.215Z,0.50
2023-03-26T12:13:21.269Z,0.57
2023-03-26T12:15:48.531Z,1.05
2023-03-26T12:18:37.298Z,1.20
2023-03-26T12:21:14.100Z,1.70
2023-03-26T12:24:04.714Z,1.75
2023-03-26T12:26:42.346Z,1.40
2023-03-26T12:29:12.547Z,1.45
2023-03-26T12:31:49.770Z,3.22
2023-03-26T12:34:22.534Z,3.38
2023-03-26T12:37:00.164Z,5.72
2023-03-26T12:40:09.701Z,3.17
2023-03-26T12:44:51.043Z,1.70
2023-03-26T12:45:29.015Z,2.05
2023-03-26T12:48:04.237Z,3.22
2023-03-26T12:51:02.225Z,1.95
2023-03-26T12:54:16.689Z,0.30
2023-03-26T12:57:11.682Z,1.65
2023-03-26T13:00:12.627Z,2.22
2023-03-26T13:02:59.403Z,2.05
2023-03-26T13:05:42.388Z,2.53
2023-03-26T13:08:39.539Z,5.82
2023-03-26T13:11:28.434Z,3.58
2023-03-26T13:14:21.942Z,5.05
2023-03-26T13:16:56.679Z,2.75
2023-03-26T13:19:42.344Z,4.60
2023-03-26T13:22:40.917Z,3.35
2023-03-26T13:25:31.192Z,2.05
2023-03-26T13:28:16.990Z,6.15
2023-03-26T13:31:11.384Z,3.70
2023-03-26T13:33:47.259Z,2.75
2023-03-26T13:36:31.139Z,2.85
2023-03-26T13:39:13.288Z,1.90
2023-03-26T13:41:56.618Z,2.58
2023-03-26T13:44:37.596Z,3.28
2023-03-26T13:47:32.199Z,3.50
2023-03-26T13:50:07.968Z,4.00
2023-03-26T13:52:45.176Z,3.33
2023-03-26T13:55:17.856Z,4.35
2023-03-26T13:58:06.236Z,2.55
2023-03-26T14:00:58.967Z,3.72
2023-03-26T14:03:38.079Z,2.85
2023-03-26T14:06:14.829Z,0.73
2023-03-26T14:08:49.716Z,2.78
2023-03-26T14:11:22.872Z,1.40
2023-03-26T14:14:04.463Z,3.55
2023-03-26T14:16:45.866Z,2.70
2023-03-26T14:19:21.737Z,2.00
2023-03-26T14:22:13.159Z,1.85
2023-03-26T14:25:05.186Z,4.38
2023-03-26T14:28:04.443Z,2.58
2023-03-26T14:31:13.688Z,2.58
2023-03-26T14:34:16.399Z,1.73
2023-03-26T14:36:49.246Z,5.65
2023-03-26T14:39:22.381Z,1.95
2023-03-26T14:41:51.402Z,5.00
2023-03-26T14:44:54.666Z,4.45
2023-03-26T14:47:24.190Z,4.18
2023-03-26T14:50:11.444Z,2.53
2023-03-26T14:52:52.552Z,4.75
2023-03-26T14:56:04.803Z,3.13
2023-03-26T14:58:54.418Z,2.97
2023-03-26T15:01:37.704Z,3.10
2023-03-26T15:04:31.803Z,2.92
2023-03-26T15:07:23.761Z,4.78
2023-03-26T15:10:22.673Z,3.70
2023-03-26T15:13:23.543Z,1.98
2023-03-26T15:16:31.687Z,0.95
2023-03-26T15:19:20.639Z,3.33
2023-03-26T15:22:27.039Z,2.00
2023-03-26T15:25:33.291Z,2.33
2023-03-26T15:28:15.983Z,3.55
2023-03-26T15:33:52.073Z,3.08
2023-03-26T15:37:01.785Z,2.10
2023-03-26T15:40:00.896Z,1.75
2023-03-26T15:46:12.451Z,2.38
2023-03-26T15:48:51.630Z,2.70
2023-03-26T15:51:46.779Z,3.60
2023-03-26T15:54:32.794Z,0.95
2023-03-26T15:57:31.620Z,4.50
2023-03-26T16:00:29.162Z,0.95
2023-03-26T16:03:10.952Z,2.90
2023-03-26T16:06:17.178Z,0.22
2023-03-26T16:09:09.980Z,2.47
2023-03-26T16:11:50.531Z,0.75
2023-03-26T16:14:23.737Z,2.38
2023-03-26T16:17:01.516Z,2.60
2023-03-26T16:20:06.705Z,4.75
2023-03-26T16:22:57.535Z,1.85
2023-03-26T16:25:29.549Z,7.40
2023-03-26T16:28:12.482Z,0.95
2023-03-26T16:30:40.503Z,1.38
2023-03-26T16:33:15.621Z,3.03
2023-03-26T16:36:26.565Z,1.90
2023-03-26T16:38:59.331Z,1.48
2023-03-26T16:41:32.058Z,0.85
2023-03-26T16:44:02.826Z,0.65
2023-03-26T16:46:56.367Z,2.83
2023-03-26T16:49:37.386Z,1.20
2023-03-26T16:52:32.740Z,2.45
2023-03-26T16:55:13.216Z,3.47
2023-03-26T16:58:13.542Z,5.07
2023-03-26T17:00:46.131Z,1.65
2023-03-26T17:03:43.680Z,0.63
2023-03-26T17:06:23.387Z,1.10
2023-03-26T17:09:05.497Z,1.48
2023-03-26T17:11:57.641Z,2.40
2023-03-26T17:14:59.428Z,0.98
2023-03-26T17:18:00.535Z,5.80
2023-03-26T17:20:42.657Z,2.25
2023-03-26T17:23:33.794Z,2.15
2023-03-26T17:26:25.681Z,2.08
2023-03-26T17:31:38.616Z,6.75
2023-03-26T17:34:52.504Z,22.60
2023-03-26T17:37:22.154Z,2.50
2023-03-26T17:39:58.215Z,2.90
2023-03-26T17:42:33.891Z,3.10
2023-03-26T17:45:20.607Z,3.72
2023-03-26T17:47:52.900Z,1.33
2023-03-26T17:50:30.515Z,3.55
2023-03-26T17:53:27.298Z,3.50
2023-03-26T17:55:57.562Z,17.95
2023-03-26T17:58:48.095Z,1.02
2023-03-26T18:01:40.016Z,1.17
2023-03-26T18:04:18.720Z,2.55
2023-03-26T18:06:53.144Z,3.65
2023-03-26T18:09:29.736Z,3.72
2023-03-26T18:12:34.535Z,3.75
2023-03-26T18:15:32.427Z,1.58
2023-03-26T18:18:25.843Z,1.98
2023-03-26T18:20:54.681Z,4.68
2023-03-26T18:23:32.517Z,1.70
2023-03-26T18:26:12.290Z,2.60
2023-03-26T18:28:54.074Z,3.47
2023-03-26T18:31:24.596Z,1.92
2023-03-26T18:33:59.421Z,5.10
2023-03-26T18:36:30.604Z,2.50
2023-03-26T18:39:02.347Z,3.20
2023-03-26T18:41:39.368Z,2.95
2023-03-26T18:44:13.416Z,3.95
2023-03-26T18:46:40.742Z,3.13
2023-03-26T18:49:10.734Z,2.55
2023-03-26T18:51:46.361Z,4.30
2023-03-26T18:56:48.215Z,8.47
2023-03-26T18:59:32.194Z,6.30
2023-03-26T19:02:00.242Z,2.67
2023-03-26T19:04:33.191Z,3.13
2023-03-26T19:07:01.688Z,2.75
2023-03-26T19:09:32.030Z,1.50
2023-03-26T19:12:19.033Z,2.47
2023-03-26T19:15:13.776Z,2.88
2023-03-26T19:17:45.473Z,2.88
2023-03-26T19:20:22.541Z,1.98
2023-03-26T19:22:50.863Z,2.67
2023-03-26T19:25:23.612Z,2.10
2023-03-26T19:27:51.977Z,3.88
2023-03-26T19:30:29.365Z,2.90
2023-03-26T19:33:13.144Z,2.35
2023-03-26T19:35:42.322Z,5.65
2023-03-26T19:38:25.634Z,3.25
2023-03-26T19:40:57.944Z,5.88
2023-03-26T19:43:25.775Z,5.57
2023-03-26T19:46:00.067Z,2.63
2023-03-26T19:48:45.914Z,3.50
2023-03-26T19:51:19.907Z,1.60
2023-03-26T19:53:55.115Z,1.42
2023-03-26T19:56:22.852Z,4.13
2023-03-26T19:58:52.634Z,3.30
2023-03-26T20:01:22.821Z,2.78
2023-03-26T20:03:52.863Z,5.38
2023-03-26T20:06:30.805Z,2.08
2023-03-26T20:09:01.445Z,8.48
2023-03-26T20:11:33.827Z,0.75
2023-03-26T20:14:01.565Z,0.95
2023-03-26T20:16:33.766Z,2.75
2023-03-26T20:19:04.537Z,2.40
2023-03-26T20:21:38.181Z,0.30
2023-03-26T20:24:15.101Z,3.13
2023-03-26T20:26:42.325Z,3.03
2023-03-26T20:29:09.069Z,0.30
2023-03-26T20:31:36.247Z,1.80
2023-03-26T20:34:03.220Z,0.55
2023-03-26T20:36:34.077Z,3.28
2023-03-26T20:39:06.291Z,2.42
2023-03-26T20:41:34.430Z,1.65
2023-03-26T20:44:03.791Z,3.15
2023-03-26T20:46:31.899Z,4.88
2023-03-26T20:48:59.953Z,0.52
2023-03-26T20:51:28.475Z,1.27
2023-03-26T20:53:55.788Z,2.80
2023-03-26T20:56:23.869Z,2.00
2023-03-26T20:59:07.877Z,1.73
2023-03-26T21:01:38.068Z,0.70
2023-03-26T21:04:05.899Z,2.55
2023-03-26T21:06:32.630Z,5.00
2023-03-26T21:08:59.814Z,4.40
2023-03-26T21:11:44.058Z,2.60
2023-03-26T21:14:27.786Z,0.70
2023-03-26T21:16:54.814Z,1.63
2023-03-26T21:19:21.812Z,1.45
2023-03-26T21:21:52.886Z,1.58
2023-03-26T21:24:59.828Z,1.50
2023-03-26T21:27:45.289Z,5.35
2023-03-26T21:30:16.512Z,2.65
2023-03-26T21:32:45.457Z,2.10
2023-03-26T21:35:17.234Z,3.37
2023-03-26T21:37:48.709Z,3.50
2023-03-26T21:40:21.039Z,3.35
2023-03-26T21:42:56.007Z,1.45
2023-03-26T21:45:23.687Z,0.20
2023-03-26T21:47:51.089Z,0.30
2023-03-26T21:50:23.715Z,1.55
2023-03-26T21:52:52.004Z,0.08
2023-03-26T21:55:22.498Z,0.00
2023-03-26T21:58:35.853Z,0.52
2023-03-26T22:01:32.665Z,1.05
2023-03-26T22:04:38.133Z,1.10
2023-03-26T22:07:12.858Z,0.45
2023-03-26T22:09:40.785Z,1.25
2023-03-26T22:12:07.776Z,2.47
2023-03-26T22:14:35.476Z,2.20
2023-03-26T22:17:05.243Z,1.88
2023-03-26T22:22:01.703Z,0.38
2023-03-26T22:24:29.523Z,0.40
2023-03-26T22:26:56.549Z,0.20
2023-03-26T22:29:27.434Z,0.68
2023-03-26T22:31:54.203Z,0.95
2023-03-26T22:34:21.376Z,1.15
2023-03-26T22:36:49.101Z,1.45
2023-03-26T22:39:16.275Z,0.20
2023-03-26T22:41:43.846Z,3.53
2023-03-26T22:44:19.807Z,1.38
2023-03-26T22:46:49.071Z,1.25
2023-03-26T22:49:16.592Z,0.32
2023-03-26T22:51:43.921Z,0.25
2023-03-26T22:54:10.686Z,0.30
2023-03-26T22:56:37.760Z,2.50
2023-03-26T22:59:05.129Z,0.82
2023-03-26T23:01:32.714Z,0.55
2023-03-26T23:04:00.697Z,1.52
2023-03-26T23:06:27.805Z,0.85
2023-03-26T23:08:57.614Z,0.40
2023-03-26T23:11:24.717Z,2.30
2023-03-26T23:13:51.930Z,1.40
2023-03-26T23:16:20.953Z,1.20
2023-03-26T23:18:48.489Z,0.20
2023-03-26T23:21:21.579Z,0.13
2023-03-26T23:23:52.411Z,1.55
2023-03-26T23:26:19.372Z,1.13
2023-03-26T23:28:46.431Z,0.68
2023-03-26T23:31:14.191Z,0.85
2023-03-26T23:33:48.100Z,1.05
2023-03-26T23:36:19.243Z,0.55
2023-03-26T23:38:48.517Z,1.70
2023-03-26T23:41:21.850Z,1.05
2023-03-26T23:43:55.714Z,1.88
2023-03-26T23:46:31.197Z,4.65
2023-03-26T23:49:04.148Z,0.75
2023-03-26T23:51:40.311Z,1.13
2023-03-26T23:54:08.884Z,4.63
2023-03-26T23:56:36.448Z,3.60
2023-03-26T23:59:05.351Z,3.50
